sensor_id;sensor_type;location;lat;lon;timestamp;temperature;humidity
21039;DHT22;10678;51.002;4.786;2023-02-28T00:00:31;1.10;99.90
21039;DHT22;10678;51.002;4.786;2023-02-28T00:02:57;1.20;99.90
21039;DHT22;10678;51.002;4.786;2023-02-28T00:05:24;1.10;99.90
21039;DHT22;10678;51.002;4.786;2023-02-28T00:07:51;1.10;99.90
21039;DHT22;10678;51.002;4.786;2023-02-28T00:10:19;1.10;99.90
21039;DHT22;10678;51.002;4.786;2023-02-28T00:12:47;1.00;99.90
21039;DHT22;10678;51.002;4.786;2023-02-28T00:15:13;1.10;99.90
21039;DHT22;10678;51.002;4.786;2023-02-28T00:17:38;1.00;99.90
21039;DHT22;10678;51.002;4.786;2023-02-28T00:20:05;1.00;99.90
21039;DHT22;10678;51.002;4.786;2023-02-28T00:22:36;1.10;99.90
21039;DHT22;10678;51.002;4.786;2023-02-28T00:25:02;1.10;99.90
21039;DHT22;10678;51.002;4.786;2023-02-28T00:27:29;1.00;99.90
21039;DHT22;10678;51.002;4.786;2023-02-28T00:29:55;1.10;99.90
21039;DHT22;10678;51.002;4.786;2023-02-28T00:32:20;1.10;99.90
21039;DHT22;10678;51.002;4.786;2023-02-28T00:34:46;1.00;99.90
21039;DHT22;10678;51.002;4.786;2023-02-28T00:37:12;1.00;99.90
21039;DHT22;10678;51.002;4.786;2023-02-28T00:39:38;1.00;99.90
21039;DHT22;10678;51.002;4.786;2023-02-28T00:42:05;1.00;99.90
21039;DHT22;10678;51.002;4.786;2023-02-28T00:44:31;0.90;99.90
21039;DHT22;10678;51.002;4.786;2023-02-28T00:46:57;0.90;99.90
21039;DHT22;10678;51.002;4.786;2023-02-28T00:49:23;0.80;99.90
21039;DHT22;10678;51.002;4.786;2023-02-28T00:51:49;0.70;99.90
21039;DHT22;10678;51.002;4.786;2023-02-28T00:54:15;0.70;99.90
21039;DHT22;10678;51.002;4.786;2023-02-28T00:56:41;0.60;99.90
21039;DHT22;10678;51.002;4.786;2023-02-28T00:59:07;0.50;99.90
21039;DHT22;10678;51.002;4.786;2023-02-28T01:01:33;0.60;99.90
21039;DHT22;10678;51.002;4.786;2023-02-28T01:03:58;0.60;99.90
21039;DHT22;10678;51.002;4.786;2023-02-28T01:06:24;0.50;99.90
21039;DHT22;10678;51.002;4.786;2023-02-28T01:08:50;0.50;99.90
21039;DHT22;10678;51.002;4.786;2023-02-28T01:11:17;0.50;99.90
21039;DHT22;10678;51.002;4.786;2023-02-28T01:13:45;0.40;99.90
21039;DHT22;10678;51.002;4.786;2023-02-28T01:16:11;0.40;99.90
21039;DHT22;10678;51.002;4.786;2023-02-28T01:18:37;0.40;99.90
21039;DHT22;10678;51.002;4.786;2023-02-28T01:21:04;0.50;99.90
21039;DHT22;10678;51.002;4.786;2023-02-28T01:23:30;0.40;99.90
21039;DHT22;10678;51.002;4.786;2023-02-28T01:25:56;0.40;99.90
21039;DHT22;10678;51.002;4.786;2023-02-28T01:28:21;0.40;99.90
21039;DHT22;10678;51.002;4.786;2023-02-28T01:30:48;0.40;99.90
21039;DHT22;10678;51.002;4.786;2023-02-28T01:33:14;0.50;99.90
21039;DHT22;10678;51.002;4.786;2023-02-28T01:35:40;0.50;99.90
21039;DHT22;10678;51.002;4.786;2023-02-28T01:38:05;0.40;99.90
21039;DHT22;10678;51.002;4.786;2023-02-28T01:40:31;0.40;99.90
21039;DHT22;10678;51.002;4.786;2023-02-28T01:42:56;0.40;99.90
21039;DHT22;10678;51.002;4.786;2023-02-28T01:45:26;0.40;99.90
21039;DHT22;10678;51.002;4.786;2023-02-28T01:48:02;0.20;99.90
21039;DHT22;10678;51.002;4.786;2023-02-28T01:50:32;0.30;99.90
21039;DHT22;10678;51.002;4.786;2023-02-28T01:53:02;0.30;99.90
21039;DHT22;10678;51.002;4.786;2023-02-28T01:55:30;0.40;99.90
21039;DHT22;10678;51.002;4.786;2023-02-28T01:58:00;0.30;99.90
21039;DHT22;10678;51.002;4.786;2023-02-28T02:00:28;0.40;99.90
21039;DHT22;10678;51.002;4.786;2023-02-28T02:03:06;0.20;99.90
21039;DHT22;10678;51.002;4.786;2023-02-28T02:05:37;0.20;99.90
21039;DHT22;10678;51.002;4.786;2023-02-28T02:08:09;0.10;99.90
21039;DHT22;10678;51.002;4.786;2023-02-28T02:10:41;0.10;99.90
21039;DHT22;10678;51.002;4.786;2023-02-28T02:15:59;0.10;99.90
21039;DHT22;10678;51.002;4.786;2023-02-28T02:18:43;0.10;99.90
21039;DHT22;10678;51.002;4.786;2023-02-28T02:21:17;0.10;99.90
21039;DHT22;10678;51.002;4.786;2023-02-28T02:35:04;0.00;99.90
21039;DHT22;10678;51.002;4.786;2023-02-28T02:37:42;0.00;99.90
21039;DHT22;10678;51.002;4.786;2023-02-28T02:40:24;-0.20;99.90
21039;DHT22;10678;51.002;4.786;2023-02-28T02:43:19;-0.20;99.90
21039;DHT22;10678;51.002;4.786;2023-02-28T02:45:59;-0.10;99.90
21039;DHT22;10678;51.002;4.786;2023-02-28T02:48:30;-0.20;99.90
21039;DHT22;10678;51.002;4.786;2023-02-28T02:51:03;-0.20;99.90
21039;DHT22;10678;51.002;4.786;2023-02-28T02:53:36;-0.30;99.90
21039;DHT22;10678;51.002;4.786;2023-02-28T02:56:03;-0.30;99.90
21039;DHT22;10678;51.002;4.786;2023-02-28T02:58:35;-0.40;99.90
21039;DHT22;10678;51.002;4.786;2023-02-28T03:01:08;-0.50;99.90
21039;DHT22;10678;51.002;4.786;2023-02-28T03:03:36;-0.50;99.90
21039;DHT22;10678;51.002;4.786;2023-02-28T03:06:02;-0.50;99.90
21039;DHT22;10678;51.002;4.786;2023-02-28T03:08:33;-0.60;99.90
21039;DHT22;10678;51.002;4.786;2023-02-28T03:11:01;-0.60;99.90
21039;DHT22;10678;51.002;4.786;2023-02-28T03:19:06;-0.70;99.90
21039;DHT22;10678;51.002;4.786;2023-02-28T03:26:56;-0.90;99.90
21039;DHT22;10678;51.002;4.786;2023-02-28T03:29:34;-0.90;99.90
21039;DHT22;10678;51.002;4.786;2023-02-28T03:34:36;-0.90;99.90
21039;DHT22;10678;51.002;4.786;2023-02-28T03:37:07;-0.90;99.90
21039;DHT22;10678;51.002;4.786;2023-02-28T03:39:37;-0.90;99.90
21039;DHT22;10678;51.002;4.786;2023-02-28T03:42:09;-1.00;99.90
21039;DHT22;10678;51.002;4.786;2023-02-28T03:44:42;-1.00;99.90
21039;DHT22;10678;51.002;4.786;2023-02-28T03:47:19;-0.90;99.90
21039;DHT22;10678;51.002;4.786;2023-02-28T03:49:59;-1.00;99.90
21039;DHT22;10678;51.002;4.786;2023-02-28T03:52:29;-1.00;99.90
21039;DHT22;10678;51.002;4.786;2023-02-28T03:55:02;-1.10;99.90
21039;DHT22;10678;51.002;4.786;2023-02-28T03:57:42;-1.20;99.90
21039;DHT22;10678;51.002;4.786;2023-02-28T04:00:13;-1.20;99.90
21039;DHT22;10678;51.002;4.786;2023-02-28T04:02:41;-1.20;99.90
21039;DHT22;10678;51.002;4.786;2023-02-28T04:05:07;-1.20;99.90
21039;DHT22;10678;51.002;4.786;2023-02-28T04:07:33;-1.10;99.90
21039;DHT22;10678;51.002;4.786;2023-02-28T04:09:59;-1.00;99.90
21039;DHT22;10678;51.002;4.786;2023-02-28T04:12:25;-0.80;99.90
21039;DHT22;10678;51.002;4.786;2023-02-28T04:14:51;-0.80;99.90
21039;DHT22;10678;51.002;4.786;2023-02-28T04:17:17;-0.70;99.90
21039;DHT22;10678;51.002;4.786;2023-02-28T04:19:42;-0.70;99.90
21039;DHT22;10678;51.002;4.786;2023-02-28T04:22:09;-0.70;99.90
21039;DHT22;10678;51.002;4.786;2023-02-28T04:24:35;-0.60;99.90
21039;DHT22;10678;51.002;4.786;2023-02-28T04:27:01;-0.50;99.90
21039;DHT22;10678;51.002;4.786;2023-02-28T04:29:29;-0.40;99.90
21039;DHT22;10678;51.002;4.786;2023-02-28T04:31:56;-0.40;99.90
21039;DHT22;10678;51.002;4.786;2023-02-28T04:34:25;-0.40;99.90
21039;DHT22;10678;51.002;4.786;2023-02-28T04:36:52;-0.40;99.90
21039;DHT22;10678;51.002;4.786;2023-02-28T04:39:20;-0.30;99.90
21039;DHT22;10678;51.002;4.786;2023-02-28T04:41:46;-0.30;99.90
21039;DHT22;10678;51.002;4.786;2023-02-28T04:44:11;-0.10;99.90
21039;DHT22;10678;51.002;4.786;2023-02-28T04:46:37;-0.10;99.90
21039;DHT22;10678;51.002;4.786;2023-02-28T04:49:03;-0.10;99.90
21039;DHT22;10678;51.002;4.786;2023-02-28T04:51:28;-0.20;99.90
21039;DHT22;10678;51.002;4.786;2023-02-28T04:53:54;-0.20;99.90
21039;DHT22;10678;51.002;4.786;2023-02-28T04:56:20;-0.10;99.90
21039;DHT22;10678;51.002;4.786;2023-02-28T04:58:46;0.00;99.90
21039;DHT22;10678;51.002;4.786;2023-02-28T05:01:32;0.20;99.90
21039;DHT22;10678;51.002;4.786;2023-02-28T05:04:00;0.40;99.90
21039;DHT22;10678;51.002;4.786;2023-02-28T05:06:28;0.30;99.90
21039;DHT22;10678;51.002;4.786;2023-02-28T05:08:55;0.30;99.90
21039;DHT22;10678;51.002;4.786;2023-02-28T05:11:28;0.40;99.90
21039;DHT22;10678;51.002;4.786;2023-02-28T05:13:54;0.40;99.90
21039;DHT22;10678;51.002;4.786;2023-02-28T05:16:20;0.40;99.90
21039;DHT22;10678;51.002;4.786;2023-02-28T05:18:46;0.30;99.90
21039;DHT22;10678;51.002;4.786;2023-02-28T05:21:28;0.30;99.90
21039;DHT22;10678;51.002;4.786;2023-02-28T05:23:56;0.30;99.90
21039;DHT22;10678;51.002;4.786;2023-02-28T05:26:22;0.30;99.90
21039;DHT22;10678;51.002;4.786;2023-02-28T05:28:47;0.30;99.90
21039;DHT22;10678;51.002;4.786;2023-02-28T05:31:13;0.40;99.90
21039;DHT22;10678;51.002;4.786;2023-02-28T05:33:39;0.40;99.90
21039;DHT22;10678;51.002;4.786;2023-02-28T05:36:05;0.40;99.90
21039;DHT22;10678;51.002;4.786;2023-02-28T05:38:31;0.50;99.90
21039;DHT22;10678;51.002;4.786;2023-02-28T05:40:57;0.50;99.90
21039;DHT22;10678;51.002;4.786;2023-02-28T05:43:23;0.50;99.90
21039;DHT22;10678;51.002;4.786;2023-02-28T05:45:50;0.50;99.90
21039;DHT22;10678;51.002;4.786;2023-02-28T05:48:15;0.60;99.90
21039;DHT22;10678;51.002;4.786;2023-02-28T05:50:42;0.50;99.90
21039;DHT22;10678;51.002;4.786;2023-02-28T05:53:10;0.60;99.90
21039;DHT22;10678;51.002;4.786;2023-02-28T05:55:35;0.50;99.90
21039;DHT22;10678;51.002;4.786;2023-02-28T05:58:02;0.40;99.90
21039;DHT22;10678;51.002;4.786;2023-02-28T06:00:28;0.50;99.90
21039;DHT22;10678;51.002;4.786;2023-02-28T06:02:53;0.60;99.90
21039;DHT22;10678;51.002;4.786;2023-02-28T06:05:23;0.70;99.90
21039;DHT22;10678;51.002;4.786;2023-02-28T06:07:48;0.70;99.90
21039;DHT22;10678;51.002;4.786;2023-02-28T06:10:14;0.70;99.90
21039;DHT22;10678;51.002;4.786;2023-02-28T06:12:40;0.80;99.90
21039;DHT22;10678;51.002;4.786;2023-02-28T06:15:13;0.80;99.90
21039;DHT22;10678;51.002;4.786;2023-02-28T06:17:43;0.80;99.90
21039;DHT22;10678;51.002;4.786;2023-02-28T06:20:10;0.80;99.90
21039;DHT22;10678;51.002;4.786;2023-02-28T06:22:38;0.70;99.90
21039;DHT22;10678;51.002;4.786;2023-02-28T06:25:04;0.70;99.90
21039;DHT22;10678;51.002;4.786;2023-02-28T06:27:31;0.70;99.90
21039;DHT22;10678;51.002;4.786;2023-02-28T06:29:57;0.80;99.90
21039;DHT22;10678;51.002;4.786;2023-02-28T06:32:22;0.70;99.90
21039;DHT22;10678;51.002;4.786;2023-02-28T06:34:48;0.80;99.90
21039;DHT22;10678;51.002;4.786;2023-02-28T06:37:14;0.90;99.90
21039;DHT22;10678;51.002;4.786;2023-02-28T06:39:39;1.00;99.90
21039;DHT22;10678;51.002;4.786;2023-02-28T06:42:05;0.90;99.90
21039;DHT22;10678;51.002;4.786;2023-02-28T06:44:31;1.00;99.90
21039;DHT22;10678;51.002;4.786;2023-02-28T06:47:01;1.10;99.90
21039;DHT22;10678;51.002;4.786;2023-02-28T06:49:33;1.10;99.90
21039;DHT22;10678;51.002;4.786;2023-02-28T06:51:59;1.20;99.90
21039;DHT22;10678;51.002;4.786;2023-02-28T06:54:24;1.20;99.90
21039;DHT22;10678;51.002;4.786;2023-02-28T06:56:50;1.20;99.90
21039;DHT22;10678;51.002;4.786;2023-02-28T06:59:16;1.20;99.90
21039;DHT22;10678;51.002;4.786;2023-02-28T07:01:42;1.10;99.90
21039;DHT22;10678;51.002;4.786;2023-02-28T07:04:08;1.10;99.90
21039;DHT22;10678;51.002;4.786;2023-02-28T07:06:33;1.00;99.90
21039;DHT22;10678;51.002;4.786;2023-02-28T07:08:59;1.10;99.90
21039;DHT22;10678;51.002;4.786;2023-02-28T07:11:26;1.20;99.90
21039;DHT22;10678;51.002;4.786;2023-02-28T07:13:56;1.30;99.90
21039;DHT22;10678;51.002;4.786;2023-02-28T07:16:23;1.50;99.90
21039;DHT22;10678;51.002;4.786;2023-02-28T07:18:49;1.50;99.90
21039;DHT22;10678;51.002;4.786;2023-02-28T07:21:15;1.50;99.90
21039;DHT22;10678;51.002;4.786;2023-02-28T07:23:41;1.50;99.90
21039;DHT22;10678;51.002;4.786;2023-02-28T07:26:11;1.50;99.90
21039;DHT22;10678;51.002;4.786;2023-02-28T07:28:40;1.50;99.90
21039;DHT22;10678;51.002;4.786;2023-02-28T07:31:07;1.60;99.90
21039;DHT22;10678;51.002;4.786;2023-02-28T07:33:33;1.60;99.90
21039;DHT22;10678;51.002;4.786;2023-02-28T07:36:08;1.60;99.90
21039;DHT22;10678;51.002;4.786;2023-02-28T07:38:37;1.50;99.90
21039;DHT22;10678;51.002;4.786;2023-02-28T07:41:03;1.40;99.90
21039;DHT22;10678;51.002;4.786;2023-02-28T07:43:30;1.60;99.90
21039;DHT22;10678;51.002;4.786;2023-02-28T07:48:29;1.60;99.90
21039;DHT22;10678;51.002;4.786;2023-02-28T07:50:58;1.80;99.90
21039;DHT22;10678;51.002;4.786;2023-02-28T07:53:24;1.90;99.90
21039;DHT22;10678;51.002;4.786;2023-02-28T07:55:50;1.90;99.90
21039;DHT22;10678;51.002;4.786;2023-02-28T07:58:15;2.00;99.90
21039;DHT22;10678;51.002;4.786;2023-02-28T08:00:41;2.10;99.90
21039;DHT22;10678;51.002;4.786;2023-02-28T08:03:10;2.30;99.90
21039;DHT22;10678;51.002;4.786;2023-02-28T08:05:40;2.40;99.90
21039;DHT22;10678;51.002;4.786;2023-02-28T08:08:06;2.80;99.90
21039;DHT22;10678;51.002;4.786;2023-02-28T08:10:33;2.90;99.90
21039;DHT22;10678;51.002;4.786;2023-02-28T08:12:58;3.00;99.90
21039;DHT22;10678;51.002;4.786;2023-02-28T08:15:24;3.10;99.90
21039;DHT22;10678;51.002;4.786;2023-02-28T08:17:49;3.00;99.90
21039;DHT22;10678;51.002;4.786;2023-02-28T08:20:15;3.00;99.90
21039;DHT22;10678;51.002;4.786;2023-02-28T08:22:40;3.10;99.90
21039;DHT22;10678;51.002;4.786;2023-02-28T08:25:07;3.20;99.90
21039;DHT22;10678;51.002;4.786;2023-02-28T08:27:33;3.30;99.90
21039;DHT22;10678;51.002;4.786;2023-02-28T08:29:59;3.50;99.90
21039;DHT22;10678;51.002;4.786;2023-02-28T08:32:24;3.50;99.90
21039;DHT22;10678;51.002;4.786;2023-02-28T08:34:50;3.90;99.90
21039;DHT22;10678;51.002;4.786;2023-02-28T08:37:16;4.70;99.90
21039;DHT22;10678;51.002;4.786;2023-02-28T08:39:42;5.50;99.90
21039;DHT22;10678;51.002;4.786;2023-02-28T08:42:07;6.40;99.90
21039;DHT22;10678;51.002;4.786;2023-02-28T08:44:33;6.70;99.90
21039;DHT22;10678;51.002;4.786;2023-02-28T08:46:58;6.60;99.90
21039;DHT22;10678;51.002;4.786;2023-02-28T08:49:24;7.00;99.90
21039;DHT22;10678;51.002;4.786;2023-02-28T08:51:49;7.80;99.90
21039;DHT22;10678;51.002;4.786;2023-02-28T08:54:15;8.00;99.90
21039;DHT22;10678;51.002;4.786;2023-02-28T08:56:45;7.90;99.90
21039;DHT22;10678;51.002;4.786;2023-02-28T08:59:12;8.50;99.90
21039;DHT22;10678;51.002;4.786;2023-02-28T09:01:38;8.50;99.90
21039;DHT22;10678;51.002;4.786;2023-02-28T09:04:03;9.10;99.90
21039;DHT22;10678;51.002;4.786;2023-02-28T09:06:29;9.50;99.90
21039;DHT22;10678;51.002;4.786;2023-02-28T09:08:58;9.90;99.90
21039;DHT22;10678;51.002;4.786;2023-02-28T09:11:25;10.90;99.90
21039;DHT22;10678;51.002;4.786;2023-02-28T09:13:50;13.50;99.20
21039;DHT22;10678;51.002;4.786;2023-02-28T09:16:16;16.70;87.60
21039;DHT22;10678;51.002;4.786;2023-02-28T09:18:43;19.20;71.50
21039;DHT22;10678;51.002;4.786;2023-02-28T09:21:11;20.80;60.90
21039;DHT22;10678;51.002;4.786;2023-02-28T09:23:40;21.10;56.60
21039;DHT22;10678;51.002;4.786;2023-02-28T09:26:06;21.60;54.50
21039;DHT22;10678;51.002;4.786;2023-02-28T09:28:32;21.30;53.10
21039;DHT22;10678;51.002;4.786;2023-02-28T09:30:58;22.50;53.90
21039;DHT22;10678;51.002;4.786;2023-02-28T09:33:25;23.60;47.60
21039;DHT22;10678;51.002;4.786;2023-02-28T09:35:56;23.70;44.20
21039;DHT22;10678;51.002;4.786;2023-02-28T09:38:22;24.10;45.80
21039;DHT22;10678;51.002;4.786;2023-02-28T09:40:49;23.90;43.00
21039;DHT22;10678;51.002;4.786;2023-02-28T09:43:16;23.10;41.90
21039;DHT22;10678;51.002;4.786;2023-02-28T09:48:36;21.90;44.90
21039;DHT22;10678;51.002;4.786;2023-02-28T09:51:05;23.40;42.60
21039;DHT22;10678;51.002;4.786;2023-02-28T09:53:37;23.30;40.40
21039;DHT22;10678;51.002;4.786;2023-02-28T09:56:08;23.20;39.70
21039;DHT22;10678;51.002;4.786;2023-02-28T10:07:07;19.10;45.60
21039;DHT22;10678;51.002;4.786;2023-02-28T10:09:42;20.00;43.30
21039;DHT22;10678;51.002;4.786;2023-02-28T10:12:12;21.20;42.30
21039;DHT22;10678;51.002;4.786;2023-02-28T10:14:39;22.60;41.00
21039;DHT22;10678;51.002;4.786;2023-02-28T10:17:36;23.30;40.30
21039;DHT22;10678;51.002;4.786;2023-02-28T10:20:12;22.80;39.60
21039;DHT22;10678;51.002;4.786;2023-02-28T10:25:26;22.10;41.50
21039;DHT22;10678;51.002;4.786;2023-02-28T10:30:32;22.40;42.30
21039;DHT22;10678;51.002;4.786;2023-02-28T10:32:58;23.30;37.50
21039;DHT22;10678;51.002;4.786;2023-02-28T10:35:25;23.90;37.00
21039;DHT22;10678;51.002;4.786;2023-02-28T10:37:55;25.00;35.30
21039;DHT22;10678;51.002;4.786;2023-02-28T10:45:22;26.20;32.70
21039;DHT22;10678;51.002;4.786;2023-02-28T10:55:36;22.00;36.50
21039;DHT22;10678;51.002;4.786;2023-02-28T10:58:02;20.60;37.00
21039;DHT22;10678;51.002;4.786;2023-02-28T11:00:33;20.00;38.30
21039;DHT22;10678;51.002;4.786;2023-02-28T11:03:00;19.90;37.10
21039;DHT22;10678;51.002;4.786;2023-02-28T11:05:33;18.90;39.30
21039;DHT22;10678;51.002;4.786;2023-02-28T11:10:31;18.50;40.10
21039;DHT22;10678;51.002;4.786;2023-02-28T11:13:00;19.20;38.60
21039;DHT22;10678;51.002;4.786;2023-02-28T11:15:29;20.90;36.80
21039;DHT22;10678;51.002;4.786;2023-02-28T11:20:30;22.30;36.60
21039;DHT22;10678;51.002;4.786;2023-02-28T11:22:58;22.60;37.00
21039;DHT22;10678;51.002;4.786;2023-02-28T11:25:32;25.20;34.50
21039;DHT22;10678;51.002;4.786;2023-02-28T11:28:01;26.30;31.70
21039;DHT22;10678;51.002;4.786;2023-02-28T11:30:36;25.70;31.80
21039;DHT22;10678;51.002;4.786;2023-02-28T11:33:31;25.80;32.20
21039;DHT22;10678;51.002;4.786;2023-02-28T11:36:24;26.70;31.00
21039;DHT22;10678;51.002;4.786;2023-02-28T11:38:51;27.30;30.40
21039;DHT22;10678;51.002;4.786;2023-02-28T11:59:54;29.30;28.60
21039;DHT22;10678;51.002;4.786;2023-02-28T12:02:26;29.10;27.20
21039;DHT22;10678;51.002;4.786;2023-02-28T12:05:18;28.00;27.60
21039;DHT22;10678;51.002;4.786;2023-02-28T12:08:12;28.40;28.00
21039;DHT22;10678;51.002;4.786;2023-02-28T12:10:57;27.50;28.50
21039;DHT22;10678;51.002;4.786;2023-02-28T12:13:41;27.50;27.70
21039;DHT22;10678;51.002;4.786;2023-02-28T12:16:44;28.30;28.20
21039;DHT22;10678;51.002;4.786;2023-02-28T12:22:22;26.80;28.00
21039;DHT22;10678;51.002;4.786;2023-02-28T12:24:55;27.80;28.10
21039;DHT22;10678;51.002;4.786;2023-02-28T12:27:29;28.40;27.20
21039;DHT22;10678;51.002;4.786;2023-02-28T12:30:15;28.80;26.30
21039;DHT22;10678;51.002;4.786;2023-02-28T12:32:44;27.30;26.60
21039;DHT22;10678;51.002;4.786;2023-02-28T12:35:14;27.60;27.50
21039;DHT22;10678;51.002;4.786;2023-02-28T12:40:13;28.00;28.70
21039;DHT22;10678;51.002;4.786;2023-02-28T12:42:51;28.40;27.70
21039;DHT22;10678;51.002;4.786;2023-02-28T12:48:18;30.10;26.30
21039;DHT22;10678;51.002;4.786;2023-02-28T12:50:45;30.70;26.70
21039;DHT22;10678;51.002;4.786;2023-02-28T12:54:07;30.10;26.70
21039;DHT22;10678;51.002;4.786;2023-02-28T13:02:18;27.10;27.00
21039;DHT22;10678;51.002;4.786;2023-02-28T13:10:47;26.20;27.40
21039;DHT22;10678;51.002;4.786;2023-02-28T13:13:17;23.90;29.30
21039;DHT22;10678;51.002;4.786;2023-02-28T13:18:39;18.40;35.10
21039;DHT22;10678;51.002;4.786;2023-02-28T13:21:28;16.90;36.80
21039;DHT22;10678;51.002;4.786;2023-02-28T13:24:00;16.10;39.60
21039;DHT22;10678;51.002;4.786;2023-02-28T13:34:34;11.30;45.20
21039;DHT22;10678;51.002;4.786;2023-02-28T13:47:33;9.10;52.00
21039;DHT22;10678;51.002;4.786;2023-02-28T13:58:46;8.00;56.30
21039;DHT22;10678;51.002;4.786;2023-02-28T14:07:05;8.00;57.00
21039;DHT22;10678;51.002;4.786;2023-02-28T14:09:39;8.00;56.70
21039;DHT22;10678;51.002;4.786;2023-02-28T14:17:55;7.70;57.90
21039;DHT22;10678;51.002;4.786;2023-02-28T14:20:22;7.70;58.90
21039;DHT22;10678;51.002;4.786;2023-02-28T14:23:03;7.70;59.40
21039;DHT22;10678;51.002;4.786;2023-02-28T14:25:51;7.70;58.60
21039;DHT22;10678;51.002;4.786;2023-02-28T14:28:31;7.40;58.20
21039;DHT22;10678;51.002;4.786;2023-02-28T14:31:09;7.30;59.40
21039;DHT22;10678;51.002;4.786;2023-02-28T14:36:44;7.30;60.80
21039;DHT22;10678;51.002;4.786;2023-02-28T14:39:20;7.20;59.40
21039;DHT22;10678;51.002;4.786;2023-02-28T14:41:46;7.30;59.50
21039;DHT22;10678;51.002;4.786;2023-02-28T14:44:21;7.20;61.20
21039;DHT22;10678;51.002;4.786;2023-02-28T14:46:56;7.10;61.80
21039;DHT22;10678;51.002;4.786;2023-02-28T14:49:35;7.10;63.10
21039;DHT22;10678;51.002;4.786;2023-02-28T14:52:22;7.20;63.60
21039;DHT22;10678;51.002;4.786;2023-02-28T14:55:01;7.20;63.90
21039;DHT22;10678;51.002;4.786;2023-02-28T14:57:38;7.10;63.50
21039;DHT22;10678;51.002;4.786;2023-02-28T15:02:50;7.00;65.00
21039;DHT22;10678;51.002;4.786;2023-02-28T15:05:21;6.80;63.40
21039;DHT22;10678;51.002;4.786;2023-02-28T15:07:48;6.70;65.20
21039;DHT22;10678;51.002;4.786;2023-02-28T15:10:27;6.70;67.10
21039;DHT22;10678;51.002;4.786;2023-02-28T15:15:19;6.70;67.70
21039;DHT22;10678;51.002;4.786;2023-02-28T15:17:52;6.60;68.30
21039;DHT22;10678;51.002;4.786;2023-02-28T15:20:19;6.60;69.80
21039;DHT22;10678;51.002;4.786;2023-02-28T15:22:46;6.70;69.70
21039;DHT22;10678;51.002;4.786;2023-02-28T15:25:18;6.70;69.80
21039;DHT22;10678;51.002;4.786;2023-02-28T15:27:48;6.70;69.20
21039;DHT22;10678;51.002;4.786;2023-02-28T15:30:21;6.60;69.70
21039;DHT22;10678;51.002;4.786;2023-02-28T15:33:06;6.60;71.60
21039;DHT22;10678;51.002;4.786;2023-02-28T15:35:33;6.70;70.50
21039;DHT22;10678;51.002;4.786;2023-02-28T15:40:40;6.50;73.40
21039;DHT22;10678;51.002;4.786;2023-02-28T15:43:13;6.50;73.50
21039;DHT22;10678;51.002;4.786;2023-02-28T15:45:51;6.40;74.10
21039;DHT22;10678;51.002;4.786;2023-02-28T15:48:45;6.40;74.40
21039;DHT22;10678;51.002;4.786;2023-02-28T15:51:19;6.30;75.00
21039;DHT22;10678;51.002;4.786;2023-02-28T15:54:06;6.40;74.90
21039;DHT22;10678;51.002;4.786;2023-02-28T15:56:42;6.40;78.00
21039;DHT22;10678;51.002;4.786;2023-02-28T15:59:27;6.20;79.90
21039;DHT22;10678;51.002;4.786;2023-02-28T16:02:16;6.30;81.70
21039;DHT22;10678;51.002;4.786;2023-02-28T16:07:27;6.40;82.80
21039;DHT22;10678;51.002;4.786;2023-02-28T16:09:52;6.20;81.20
21039;DHT22;10678;51.002;4.786;2023-02-28T16:12:20;6.30;80.60
21039;DHT22;10678;51.002;4.786;2023-02-28T16:14:52;6.30;84.20
21039;DHT22;10678;51.002;4.786;2023-02-28T16:17:26;6.30;83.20
21039;DHT22;10678;51.002;4.786;2023-02-28T16:19:53;6.40;82.10
21039;DHT22;10678;51.002;4.786;2023-02-28T16:22:19;6.40;82.40
21039;DHT22;10678;51.002;4.786;2023-02-28T16:24:44;6.20;84.30
21039;DHT22;10678;51.002;4.786;2023-02-28T16:27:18;6.30;84.60
21039;DHT22;10678;51.002;4.786;2023-02-28T16:29:45;6.30;84.60
21039;DHT22;10678;51.002;4.786;2023-02-28T16:32:14;6.30;83.40
21039;DHT22;10678;51.002;4.786;2023-02-28T16:34:41;6.10;87.80
21039;DHT22;10678;51.002;4.786;2023-02-28T16:37:12;6.10;89.00
21039;DHT22;10678;51.002;4.786;2023-02-28T16:39:37;6.00;89.60
21039;DHT22;10678;51.002;4.786;2023-02-28T16:42:03;5.90;90.10
21039;DHT22;10678;51.002;4.786;2023-02-28T16:44:35;5.90;89.20
21039;DHT22;10678;51.002;4.786;2023-02-28T16:47:03;5.70;92.20
21039;DHT22;10678;51.002;4.786;2023-02-28T17:03:21;5.70;90.50
21039;DHT22;10678;51.002;4.786;2023-02-28T17:05:47;5.70;94.20
21039;DHT22;10678;51.002;4.786;2023-02-28T17:08:13;5.60;93.30
21039;DHT22;10678;51.002;4.786;2023-02-28T17:10:38;5.40;93.50
21039;DHT22;10678;51.002;4.786;2023-02-28T17:13:04;5.30;93.50
21039;DHT22;10678;51.002;4.786;2023-02-28T17:15:33;5.20;95.00
21039;DHT22;10678;51.002;4.786;2023-02-28T17:17:58;5.00;96.30
21039;DHT22;10678;51.002;4.786;2023-02-28T17:20:24;4.80;95.40
21039;DHT22;10678;51.002;4.786;2023-02-28T17:22:52;4.90;96.30
21039;DHT22;10678;51.002;4.786;2023-02-28T17:25:18;4.80;96.10
21039;DHT22;10678;51.002;4.786;2023-02-28T17:27:44;4.70;97.10
21039;DHT22;10678;51.002;4.786;2023-02-28T17:30:21;4.60;97.70
21039;DHT22;10678;51.002;4.786;2023-02-28T17:32:47;4.50;98.10
21039;DHT22;10678;51.002;4.786;2023-02-28T17:35:13;4.40;98.50
21039;DHT22;10678;51.002;4.786;2023-02-28T17:37:39;4.30;99.00
21039;DHT22;10678;51.002;4.786;2023-02-28T17:40:05;4.20;99.60
21039;DHT22;10678;51.002;4.786;2023-02-28T17:42:31;4.10;99.50
21039;DHT22;10678;51.002;4.786;2023-02-28T17:44:57;4.10;99.70
21039;DHT22;10678;51.002;4.786;2023-02-28T17:47:22;4.00;99.90
21039;DHT22;10678;51.002;4.786;2023-02-28T17:49:48;3.90;99.90
21039;DHT22;10678;51.002;4.786;2023-02-28T17:52:14;3.90;99.90
21039;DHT22;10678;51.002;4.786;2023-02-28T17:54:39;3.80;99.90
21039;DHT22;10678;51.002;4.786;2023-02-28T17:57:05;3.70;99.90
21039;DHT22;10678;51.002;4.786;2023-02-28T17:59:30;3.70;99.90
21039;DHT22;10678;51.002;4.786;2023-02-28T18:02:02;3.60;99.90
21039;DHT22;10678;51.002;4.786;2023-02-28T18:04:29;3.60;99.90
21039;DHT22;10678;51.002;4.786;2023-02-28T18:06:54;3.50;99.90
21039;DHT22;10678;51.002;4.786;2023-02-28T18:09:26;3.30;99.90
21039;DHT22;10678;51.002;4.786;2023-02-28T18:11:53;3.30;99.90
21039;DHT22;10678;51.002;4.786;2023-02-28T18:14:20;3.20;99.90
21039;DHT22;10678;51.002;4.786;2023-02-28T18:16:46;3.30;99.90
21039;DHT22;10678;51.002;4.786;2023-02-28T18:19:12;3.20;99.90
21039;DHT22;10678;51.002;4.786;2023-02-28T18:21:44;3.20;99.90
21039;DHT22;10678;51.002;4.786;2023-02-28T18:24:10;3.20;99.90
21039;DHT22;10678;51.002;4.786;2023-02-28T18:26:37;3.20;99.90
21039;DHT22;10678;51.002;4.786;2023-02-28T18:29:03;3.00;99.90
21039;DHT22;10678;51.002;4.786;2023-02-28T18:31:28;3.00;99.90
21039;DHT22;10678;51.002;4.786;2023-02-28T18:33:56;3.00;99.90
21039;DHT22;10678;51.002;4.786;2023-02-28T18:36:22;2.90;99.90
21039;DHT22;10678;51.002;4.786;2023-02-28T18:38:48;2.80;99.90
21039;DHT22;10678;51.002;4.786;2023-02-28T18:41:15;2.80;99.90
21039;DHT22;10678;51.002;4.786;2023-02-28T18:43:41;2.80;99.90
21039;DHT22;10678;51.002;4.786;2023-02-28T18:46:12;2.80;99.90
21039;DHT22;10678;51.002;4.786;2023-02-28T18:48:38;2.70;99.90